To NAV CANADA Home Page Login to a new session Search on AWWS site Feedback and Comments Disclaimer Vers la page française équivalente Tips FAQ What's new on the site To the Forecasts and Observations / NOTAM section To "File a Flight Plan" website Publications and other links Update of the User's profile FIC Telephone Numbers My Weather Data Folder Route Weather Data Regional Weather Data Local Weather Data To the Forecasts and Observations / NOTAM section
Request Generated 09/25/2016 at 12:13:03 UTC . Weather information available at that time is displayed.

METAR/TAF

BRANDON MUNICIPALITY/MB    

METAR CYBR 251200Z 30013G19KT 8SM -RA OVC014 10/09 A2978 RMK SC8
SLP093=
METAR CYBR 251100Z 32014KT 12SM -RA BKN014 OVC034 11/10 A2976 RMK
SC6SC2 SLP085=
METAR CYBR 251000Z 33011G17KT 6SM -RA BR OVC011 11/10 A2974 RMK SC8
SLP078 DENSITY ALT 1400FT=

TAF CYBR 251138Z 2512/2524 31012G22KT P6SM -RA BKN012 TEMPO 2512/2518
2SM -RA BR BKN006
BECMG 2514/2516 31020G30KT
FM251800 31020G30KT P6SM BKN025 TEMPO 2518/2521 BKN015
BECMG 2519/2521 31025G35KT
FM252100 31025G35KT P6SM SCT025
RMK NXT FCST BY 251800Z=
Your time UTC time
Weather data provided by Environment Canada and NAV CANADA